Port O Connor, Texas
Current Conditions -  °F | °C
As of 2:53 PM on Tuesday 21 Oct 2014 (Local Time) from KRKP Reporting Station
Clear Clear  
Wind Chill: 82°   Ceiling: Unl
Heat Index: 85°   Visibility: 10mi
Dew Point: 69°   Wind: 16mph
Humidity: 65%   Direction: 70°ENE
Pressure: 29.95"   Gusts: NA
Location:  28.2231°N, 96.6507°W
Report Text: KRKP 211953Z AUTO 07014KT 10SM CLR 28/21 A2995 RMK AO2 SLP142 T02780206
Loading
Personal Weather Stations






























Interactive Weather Map
Tropical Storm Tracking
New forecast layout! Learn more

10-Day Weather Forecast

Advertisements
Track Severe Weather on mobile